sensor_id;sensor_type;location;lat;lon;timestamp;P1;durP1;ratioP1;P2;durP2;ratioP2
49147;SDS011;41980;45.550;12.070;2022-09-09T00:04:33;2.40;;;1.00;;
49147;SDS011;41980;45.550;12.070;2022-09-09T00:10:38;3.47;;;1.55;;
49147;SDS011;41980;45.550;12.070;2022-09-09T00:16:44;2.38;;;1.10;;
49147;SDS011;41980;45.550;12.070;2022-09-09T00:22:54;5.25;;;1.30;;
49147;SDS011;41980;45.550;12.070;2022-09-09T01:18:05;2.45;;;1.30;;
49147;SDS011;41980;45.550;12.070;2022-09-09T01:24:19;2.35;;;1.63;;
49147;SDS011;41980;45.550;12.070;2022-09-09T01:30:38;2.60;;;1.50;;
49147;SDS011;41980;45.550;12.070;2022-09-09T01:42:55;2.50;;;1.42;;
49147;SDS011;41980;45.550;12.070;2022-09-09T01:48:58;2.40;;;1.20;;
49147;SDS011;41980;45.550;12.070;2022-09-09T01:55:03;3.08;;;2.00;;
49147;SDS011;41980;45.550;12.070;2022-09-09T02:13:27;2.90;;;1.80;;
49147;SDS011;41980;45.550;12.070;2022-09-09T02:19:34;4.75;;;1.70;;
49147;SDS011;41980;45.550;12.070;2022-09-09T02:25:52;3.85;;;1.70;;
49147;SDS011;41980;45.550;12.070;2022-09-09T02:32:00;2.40;;;1.40;;
49147;SDS011;41980;45.550;12.070;2022-09-09T02:38:10;3.28;;;1.52;;
49147;SDS011;41980;45.550;12.070;2022-09-09T02:44:24;3.42;;;1.73;;
49147;SDS011;41980;45.550;12.070;2022-09-09T02:50:29;2.92;;;1.55;;
49147;SDS011;41980;45.550;12.070;2022-09-09T03:02:44;2.97;;;1.40;;
49147;SDS011;41980;45.550;12.070;2022-09-09T03:08:46;3.88;;;1.60;;
49147;SDS011;41980;45.550;12.070;2022-09-09T03:14:55;3.17;;;1.70;;
49147;SDS011;41980;45.550;12.070;2022-09-09T03:20:58;3.50;;;1.48;;
49147;SDS011;41980;45.550;12.070;2022-09-09T03:27:01;2.38;;;1.10;;
49147;SDS011;41980;45.550;12.070;2022-09-09T03:33:04;3.25;;;1.50;;
49147;SDS011;41980;45.550;12.070;2022-09-09T03:39:08;3.95;;;2.00;;
49147;SDS011;41980;45.550;12.070;2022-09-09T03:45:11;3.25;;;1.63;;
49147;SDS011;41980;45.550;12.070;2022-09-09T03:51:15;3.55;;;1.52;;
49147;SDS011;41980;45.550;12.070;2022-09-09T03:57:18;4.38;;;1.98;;
49147;SDS011;41980;45.550;12.070;2022-09-09T04:03:21;4.20;;;2.35;;
49147;SDS011;41980;45.550;12.070;2022-09-09T04:09:26;3.22;;;1.20;;
49147;SDS011;41980;45.550;12.070;2022-09-09T04:15:28;2.83;;;1.30;;
49147;SDS011;41980;45.550;12.070;2022-09-09T04:21:31;2.95;;;1.30;;
49147;SDS011;41980;45.550;12.070;2022-09-09T04:27:35;2.65;;;1.60;;
49147;SDS011;41980;45.550;12.070;2022-09-09T04:33:37;3.50;;;1.80;;
49147;SDS011;41980;45.550;12.070;2022-09-09T04:39:42;4.53;;;1.80;;
49147;SDS011;41980;45.550;12.070;2022-09-09T04:45:46;2.78;;;1.60;;
49147;SDS011;41980;45.550;12.070;2022-09-09T04:51:50;3.90;;;1.58;;
49147;SDS011;41980;45.550;12.070;2022-09-09T04:57:53;3.47;;;2.10;;
49147;SDS011;41980;45.550;12.070;2022-09-09T05:03:55;6.03;;;2.60;;
49147;SDS011;41980;45.550;12.070;2022-09-09T05:09:58;8.38;;;2.40;;
49147;SDS011;41980;45.550;12.070;2022-09-09T05:16:00;3.05;;;1.52;;
49147;SDS011;41980;45.550;12.070;2022-09-09T05:22:03;4.07;;;2.45;;
49147;SDS011;41980;45.550;12.070;2022-09-09T05:28:14;5.53;;;2.63;;
49147;SDS011;41980;45.550;12.070;2022-09-09T05:34:17;4.18;;;2.75;;
49147;SDS011;41980;45.550;12.070;2022-09-09T05:40:19;4.97;;;2.40;;
49147;SDS011;41980;45.550;12.070;2022-09-09T05:46:24;4.72;;;2.22;;
49147;SDS011;41980;45.550;12.070;2022-09-09T05:52:28;3.42;;;1.77;;
49147;SDS011;41980;45.550;12.070;2022-09-09T05:58:33;3.95;;;2.10;;
49147;SDS011;41980;45.550;12.070;2022-09-09T06:04:39;4.13;;;1.63;;
49147;SDS011;41980;45.550;12.070;2022-09-09T06:10:42;4.70;;;1.95;;
49147;SDS011;41980;45.550;12.070;2022-09-09T06:16:44;4.55;;;1.60;;
49147;SDS011;41980;45.550;12.070;2022-09-09T06:22:53;3.15;;;1.50;;
49147;SDS011;41980;45.550;12.070;2022-09-09T06:28:55;4.88;;;1.50;;
49147;SDS011;41980;45.550;12.070;2022-09-09T06:34:59;3.78;;;2.25;;
49147;SDS011;41980;45.550;12.070;2022-09-09T06:41:03;3.75;;;2.55;;
49147;SDS011;41980;45.550;12.070;2022-09-09T06:47:08;5.07;;;2.65;;
49147;SDS011;41980;45.550;12.070;2022-09-09T06:53:10;3.60;;;1.90;;
49147;SDS011;41980;45.550;12.070;2022-09-09T06:59:13;6.32;;;3.00;;
49147;SDS011;41980;45.550;12.070;2022-09-09T07:05:16;4.38;;;1.95;;
49147;SDS011;41980;45.550;12.070;2022-09-09T07:11:22;4.70;;;2.05;;
49147;SDS011;41980;45.550;12.070;2022-09-09T07:17:27;4.50;;;2.17;;
49147;SDS011;41980;45.550;12.070;2022-09-09T07:23:30;6.05;;;2.30;;
49147;SDS011;41980;45.550;12.070;2022-09-09T07:29:33;5.13;;;2.55;;
49147;SDS011;41980;45.550;12.070;2022-09-09T07:35:35;5.45;;;2.00;;
49147;SDS011;41980;45.550;12.070;2022-09-09T07:41:40;7.95;;;2.78;;
49147;SDS011;41980;45.550;12.070;2022-09-09T07:47:45;8.27;;;2.65;;
49147;SDS011;41980;45.550;12.070;2022-09-09T07:53:48;3.63;;;1.98;;
49147;SDS011;41980;45.550;12.070;2022-09-09T07:59:54;6.68;;;2.03;;
49147;SDS011;41980;45.550;12.070;2022-09-09T08:06:00;4.95;;;2.42;;
49147;SDS011;41980;45.550;12.070;2022-09-09T08:12:05;8.55;;;3.00;;
49147;SDS011;41980;45.550;12.070;2022-09-09T08:18:09;5.43;;;1.95;;
49147;SDS011;41980;45.550;12.070;2022-09-09T08:24:12;6.43;;;1.73;;
49147;SDS011;41980;45.550;12.070;2022-09-09T08:30:19;5.95;;;2.08;;
49147;SDS011;41980;45.550;12.070;2022-09-09T08:36:23;7.88;;;2.40;;
49147;SDS011;41980;45.550;12.070;2022-09-09T08:54:45;3.20;;;1.70;;
49147;SDS011;41980;45.550;12.070;2022-09-09T09:00:53;5.22;;;1.90;;
49147;SDS011;41980;45.550;12.070;2022-09-09T09:19:28;4.15;;;1.70;;
49147;SDS011;41980;45.550;12.070;2022-09-09T09:25:35;4.35;;;1.92;;
49147;SDS011;41980;45.550;12.070;2022-09-09T09:37:50;4.10;;;1.90;;
49147;SDS011;41980;45.550;12.070;2022-09-09T09:43:53;4.25;;;1.98;;
49147;SDS011;41980;45.550;12.070;2022-09-09T09:49:57;4.68;;;1.50;;
49147;SDS011;41980;45.550;12.070;2022-09-09T09:56:09;3.97;;;1.80;;
49147;SDS011;41980;45.550;12.070;2022-09-09T10:08:34;4.53;;;2.00;;
49147;SDS011;41980;45.550;12.070;2022-09-09T10:27:11;4.50;;;1.55;;
49147;SDS011;41980;45.550;12.070;2022-09-09T10:58:09;2.35;;;0.90;;
49147;SDS011;41980;45.550;12.070;2022-09-09T11:10:29;3.20;;;1.65;;
49147;SDS011;41980;45.550;12.070;2022-09-09T11:22:48;2.97;;;1.40;;
49147;SDS011;41980;45.550;12.070;2022-09-09T11:29:02;2.35;;;1.48;;
49147;SDS011;41980;45.550;12.070;2022-09-09T11:41:32;4.00;;;1.50;;
49147;SDS011;41980;45.550;12.070;2022-09-09T11:47:38;3.83;;;1.90;;
49147;SDS011;41980;45.550;12.070;2022-09-09T11:59:50;2.13;;;1.20;;
49147;SDS011;41980;45.550;12.070;2022-09-09T12:05:53;4.93;;;1.50;;
49147;SDS011;41980;45.550;12.070;2022-09-09T12:18:06;4.43;;;2.03;;
49147;SDS011;41980;45.550;12.070;2022-09-09T12:24:18;5.60;;;1.83;;
49147;SDS011;41980;45.550;12.070;2022-09-09T12:30:29;5.90;;;2.10;;
49147;SDS011;41980;45.550;12.070;2022-09-09T12:36:35;3.25;;;1.70;;
49147;SDS011;41980;45.550;12.070;2022-09-09T12:42:39;3.58;;;1.45;;
49147;SDS011;41980;45.550;12.070;2022-09-09T12:48:42;2.38;;;1.45;;
49147;SDS011;41980;45.550;12.070;2022-09-09T12:54:46;3.03;;;1.17;;
49147;SDS011;41980;45.550;12.070;2022-09-09T13:00:49;3.78;;;1.75;;
49147;SDS011;41980;45.550;12.070;2022-09-09T13:06:54;3.58;;;1.25;;
49147;SDS011;41980;45.550;12.070;2022-09-09T13:19:17;2.20;;;1.10;;
49147;SDS011;41980;45.550;12.070;2022-09-09T13:25:20;2.00;;;1.00;;
49147;SDS011;41980;45.550;12.070;2022-09-09T13:31:28;6.13;;;1.50;;
49147;SDS011;41980;45.550;12.070;2022-09-09T13:43:38;3.50;;;1.25;;
49147;SDS011;41980;45.550;12.070;2022-09-09T13:49:48;8.25;;;1.58;;
49147;SDS011;41980;45.550;12.070;2022-09-09T13:55:51;3.40;;;0.90;;
49147;SDS011;41980;45.550;12.070;2022-09-09T14:01:54;2.03;;;0.70;;
49147;SDS011;41980;45.550;12.070;2022-09-09T14:07:56;2.50;;;0.88;;
49147;SDS011;41980;45.550;12.070;2022-09-09T14:13:59;2.58;;;0.50;;
49147;SDS011;41980;45.550;12.070;2022-09-09T14:20:03;1.80;;;0.60;;
49147;SDS011;41980;45.550;12.070;2022-09-09T14:26:09;2.25;;;0.82;;
49147;SDS011;41980;45.550;12.070;2022-09-09T14:32:12;1.77;;;0.60;;
49147;SDS011;41980;45.550;12.070;2022-09-09T14:38:14;1.98;;;1.00;;
49147;SDS011;41980;45.550;12.070;2022-09-09T14:44:16;3.10;;;1.50;;
49147;SDS011;41980;45.550;12.070;2022-09-09T14:50:19;3.80;;;1.33;;
49147;SDS011;41980;45.550;12.070;2022-09-09T14:56:22;2.30;;;1.10;;
49147;SDS011;41980;45.550;12.070;2022-09-09T15:02:27;3.92;;;1.10;;
49147;SDS011;41980;45.550;12.070;2022-09-09T15:08:31;4.15;;;1.10;;
49147;SDS011;41980;45.550;12.070;2022-09-09T15:14:33;3.25;;;1.20;;
49147;SDS011;41980;45.550;12.070;2022-09-09T15:20:36;2.97;;;1.10;;
49147;SDS011;41980;45.550;12.070;2022-09-09T15:26:39;3.05;;;1.00;;
49147;SDS011;41980;45.550;12.070;2022-09-09T15:32:42;3.15;;;1.10;;
49147;SDS011;41980;45.550;12.070;2022-09-09T15:38:44;3.60;;;1.33;;
49147;SDS011;41980;45.550;12.070;2022-09-09T15:44:46;3.65;;;1.58;;
49147;SDS011;41980;45.550;12.070;2022-09-09T15:50:50;2.50;;;1.15;;
49147;SDS011;41980;45.550;12.070;2022-09-09T15:57:05;2.35;;;1.20;;
49147;SDS011;41980;45.550;12.070;2022-09-09T16:03:10;2.10;;;0.75;;
49147;SDS011;41980;45.550;12.070;2022-09-09T16:09:14;2.30;;;1.30;;
49147;SDS011;41980;45.550;12.070;2022-09-09T16:15:16;3.92;;;1.23;;
49147;SDS011;41980;45.550;12.070;2022-09-09T16:27:30;2.10;;;1.05;;
49147;SDS011;41980;45.550;12.070;2022-09-09T16:33:32;3.40;;;1.60;;
49147;SDS011;41980;45.550;12.070;2022-09-09T16:39:35;5.25;;;1.73;;
49147;SDS011;41980;45.550;12.070;2022-09-09T16:51:45;3.58;;;1.75;;
49147;SDS011;41980;45.550;12.070;2022-09-09T16:57:49;3.85;;;1.77;;
49147;SDS011;41980;45.550;12.070;2022-09-09T17:03:53;2.67;;;1.58;;
49147;SDS011;41980;45.550;12.070;2022-09-09T17:09:56;3.58;;;2.17;;
49147;SDS011;41980;45.550;12.070;2022-09-09T17:15:58;7.03;;;2.95;;
49147;SDS011;41980;45.550;12.070;2022-09-09T17:22:05;4.10;;;3.08;;
49147;SDS011;41980;45.550;12.070;2022-09-09T17:28:07;3.55;;;2.25;;
49147;SDS011;41980;45.550;12.070;2022-09-09T17:34:09;3.67;;;2.50;;
49147;SDS011;41980;45.550;12.070;2022-09-09T17:40:11;4.20;;;2.88;;
49147;SDS011;41980;45.550;12.070;2022-09-09T17:46:16;6.50;;;3.80;;
49147;SDS011;41980;45.550;12.070;2022-09-09T17:52:22;8.35;;;5.85;;
49147;SDS011;41980;45.550;12.070;2022-09-09T17:58:25;8.77;;;6.47;;
49147;SDS011;41980;45.550;12.070;2022-09-09T18:04:27;9.95;;;7.28;;
49147;SDS011;41980;45.550;12.070;2022-09-09T18:10:29;8.27;;;5.85;;
49147;SDS011;41980;45.550;12.070;2022-09-09T18:16:32;5.53;;;3.78;;
49147;SDS011;41980;45.550;12.070;2022-09-09T18:22:36;15.65;;;12.07;;
49147;SDS011;41980;45.550;12.070;2022-09-09T18:28:38;15.85;;;11.40;;
49147;SDS011;41980;45.550;12.070;2022-09-09T18:34:42;11.88;;;8.70;;
49147;SDS011;41980;45.550;12.070;2022-09-09T18:40:44;9.90;;;7.03;;
49147;SDS011;41980;45.550;12.070;2022-09-09T18:46:46;6.30;;;4.97;;
49147;SDS011;41980;45.550;12.070;2022-09-09T18:52:49;6.00;;;4.15;;
49147;SDS011;41980;45.550;12.070;2022-09-09T18:58:52;5.10;;;3.67;;
49147;SDS011;41980;45.550;12.070;2022-09-09T19:04:55;4.65;;;3.17;;
49147;SDS011;41980;45.550;12.070;2022-09-09T19:11:00;3.97;;;2.58;;
49147;SDS011;41980;45.550;12.070;2022-09-09T19:17:02;4.97;;;2.40;;
49147;SDS011;41980;45.550;12.070;2022-09-09T19:23:05;5.53;;;2.97;;
49147;SDS011;41980;45.550;12.070;2022-09-09T19:29:07;4.47;;;2.00;;
49147;SDS011;41980;45.550;12.070;2022-09-09T19:35:11;3.95;;;2.00;;
49147;SDS011;41980;45.550;12.070;2022-09-09T19:41:15;2.85;;;1.88;;
49147;SDS011;41980;45.550;12.070;2022-09-09T19:47:20;4.25;;;1.85;;
49147;SDS011;41980;45.550;12.070;2022-09-09T19:53:24;2.22;;;1.40;;
49147;SDS011;41980;45.550;12.070;2022-09-09T19:59:26;3.95;;;1.98;;
49147;SDS011;41980;45.550;12.070;2022-09-09T20:05:30;2.33;;;1.30;;
49147;SDS011;41980;45.550;12.070;2022-09-09T20:11:32;2.83;;;1.50;;
49147;SDS011;41980;45.550;12.070;2022-09-09T20:17:34;3.55;;;1.85;;
49147;SDS011;41980;45.550;12.070;2022-09-09T20:23:38;3.45;;;1.80;;
49147;SDS011;41980;45.550;12.070;2022-09-09T20:29:40;4.18;;;1.80;;
49147;SDS011;41980;45.550;12.070;2022-09-09T20:35:43;3.03;;;1.40;;
49147;SDS011;41980;45.550;12.070;2022-09-09T20:41:45;1.95;;;1.27;;
49147;SDS011;41980;45.550;12.070;2022-09-09T20:47:47;2.60;;;1.48;;
49147;SDS011;41980;45.550;12.070;2022-09-09T20:53:53;3.22;;;2.05;;
49147;SDS011;41980;45.550;12.070;2022-09-09T20:59:57;3.13;;;1.48;;
49147;SDS011;41980;45.550;12.070;2022-09-09T21:05:59;2.58;;;1.30;;
49147;SDS011;41980;45.550;12.070;2022-09-09T21:12:03;2.20;;;1.10;;
49147;SDS011;41980;45.550;12.070;2022-09-09T21:18:05;2.35;;;1.20;;
49147;SDS011;41980;45.550;12.070;2022-09-09T21:24:07;2.38;;;1.40;;
49147;SDS011;41980;45.550;12.070;2022-09-09T21:30:11;2.85;;;1.85;;
49147;SDS011;41980;45.550;12.070;2022-09-09T21:36:14;3.10;;;2.30;;
49147;SDS011;41980;45.550;12.070;2022-09-09T21:42:16;4.40;;;2.05;;
49147;SDS011;41980;45.550;12.070;2022-09-09T21:48:19;4.05;;;1.65;;
49147;SDS011;41980;45.550;12.070;2022-09-09T21:54:21;2.40;;;1.58;;
49147;SDS011;41980;45.550;12.070;2022-09-09T22:00:23;2.65;;;1.40;;
49147;SDS011;41980;45.550;12.070;2022-09-09T22:06:26;2.25;;;1.20;;
49147;SDS011;41980;45.550;12.070;2022-09-09T22:12:28;2.65;;;1.10;;
49147;SDS011;41980;45.550;12.070;2022-09-09T22:18:31;2.10;;;1.05;;
49147;SDS011;41980;45.550;12.070;2022-09-09T22:24:34;3.00;;;1.10;;
49147;SDS011;41980;45.550;12.070;2022-09-09T22:30:39;4.03;;;1.75;;
49147;SDS011;41980;45.550;12.070;2022-09-09T22:36:41;2.35;;;1.40;;
49147;SDS011;41980;45.550;12.070;2022-09-09T22:42:43;1.77;;;1.08;;
49147;SDS011;41980;45.550;12.070;2022-09-09T22:48:45;4.45;;;2.53;;
49147;SDS011;41980;45.550;12.070;2022-09-09T22:54:48;4.00;;;1.60;;
49147;SDS011;41980;45.550;12.070;2022-09-09T23:00:50;2.75;;;1.65;;
49147;SDS011;41980;45.550;12.070;2022-09-09T23:06:52;2.63;;;1.30;;
49147;SDS011;41980;45.550;12.070;2022-09-09T23:12:54;5.13;;;1.35;;
49147;SDS011;41980;45.550;12.070;2022-09-09T23:18:58;2.20;;;0.80;;
49147;SDS011;41980;45.550;12.070;2022-09-09T23:25:01;3.22;;;1.80;;
49147;SDS011;41980;45.550;12.070;2022-09-09T23:31:07;3.45;;;1.20;;
49147;SDS011;41980;45.550;12.070;2022-09-09T23:37:11;2.05;;;1.02;;
49147;SDS011;41980;45.550;12.070;2022-09-09T23:43:13;2.03;;;0.93;;
49147;SDS011;41980;45.550;12.070;2022-09-09T23:49:15;1.60;;;0.60;;
49147;SDS011;41980;45.550;12.070;2022-09-09T23:55:17;3.30;;;1.40;;
